Impacts TAF Board INFO
FOR SITUATIONAL AWARENESS. NOT TO BE USED FOR FLIGHT PLANNING PURPOSES.
IDs:

KPHX - Phoenix/Sky Harbor, AZ, US

Issued at 1447 UTC 26 Apr 2018
Updated at 1719 UTC 26 Apr 2018
Potential Impact None Slight Moderate High
Time<<27/18Z 27/19Z 27/20Z 27/21Z 27/22Z 27/23Z 28/00Z 28/01Z 28/02Z 28/03Z 28/04Z 28/05Z 28/06Z
Type
VIS
CIG
Cover
FltCat
WX
WDir
WSpd
WGst

Raw TAF
KPHX 261447Z 2615/2718 11007KT P6SM BKN250
  FM261900 26008KT P6SM BKN250
  FM271000 10005KT P6SM SCT200


METAR Board
Radar Display
Forecast Discussion

FOR SITUATIONAL AWARENESS. NOT TO BE USED FOR FLIGHT PLANNING PURPOSES.